sensor_id;sensor_type;location;lat;lon;timestamp;pressure;altitude;pressure_sealevel;temperature;humidity
17254;BME280;32542;52.832;13.816;2022-10-30T00:00:43;101882.41;;;20.93;60.65
17254;BME280;32542;52.832;13.816;2022-10-30T00:03:45;101883.31;;;20.94;60.70
17254;BME280;32542;52.832;13.816;2022-10-30T00:06:50;101874.44;;;20.93;60.72
17254;BME280;32542;52.832;13.816;2022-10-30T00:09:52;101859.38;;;20.92;60.68
17254;BME280;32542;52.832;13.816;2022-10-30T00:12:55;101852.31;;;20.91;60.80
17254;BME280;32542;52.832;13.816;2022-10-30T00:15:58;101852.31;;;20.91;60.74
17254;BME280;32542;52.832;13.816;2022-10-30T00:19:04;101848.75;;;20.91;60.72
17254;BME280;32542;52.832;13.816;2022-10-30T00:22:08;101849.66;;;20.91;60.63
17254;BME280;32542;52.832;13.816;2022-10-30T00:25:11;101850.59;;;20.90;60.70
17254;BME280;32542;52.832;13.816;2022-10-30T00:28:14;101852.31;;;20.91;60.68
17254;BME280;32542;52.832;13.816;2022-10-30T00:31:17;101857.63;;;20.91;60.73
17254;BME280;32542;52.832;13.816;2022-10-30T00:34:20;101854.97;;;20.91;60.67
17254;BME280;32542;52.832;13.816;2022-10-30T00:37:24;101858.47;;;20.93;60.63
17254;BME280;32542;52.832;13.816;2022-10-30T00:40:27;101859.38;;;20.92;60.48
17254;BME280;32542;52.832;13.816;2022-10-30T00:43:33;101855.78;;;20.93;60.72
17254;BME280;32542;52.832;13.816;2022-10-30T00:46:38;101844.31;;;20.91;60.64
17254;BME280;32542;52.832;13.816;2022-10-30T00:49:49;101839.00;;;20.91;60.71
17254;BME280;32542;52.832;13.816;2022-10-30T00:52:58;101832.78;;;20.91;60.65
17254;BME280;32542;52.832;13.816;2022-10-30T00:56:05;101825.69;;;20.91;60.64
17254;BME280;32542;52.832;13.816;2022-10-30T00:59:11;101817.75;;;20.90;60.69
17254;BME280;32542;52.832;13.816;2022-10-30T01:02:16;101826.63;;;20.90;60.69
17254;BME280;32542;52.832;13.816;2022-10-30T01:05:22;101817.75;;;20.90;60.67
17254;BME280;32542;52.832;13.816;2022-10-30T01:08:28;101817.75;;;20.90;60.71
17254;BME280;32542;52.832;13.816;2022-10-30T01:11:31;101813.31;;;20.90;60.64
17254;BME280;32542;52.832;13.816;2022-10-30T01:14:36;101819.53;;;20.89;60.67
17254;BME280;32542;52.832;13.816;2022-10-30T01:18:02;101813.31;;;20.90;60.64
17254;BME280;32542;52.832;13.816;2022-10-30T01:21:14;101807.91;;;20.92;60.63
17254;BME280;32542;52.832;13.816;2022-10-30T01:24:33;101817.69;;;20.91;60.72
17254;BME280;32542;52.832;13.816;2022-10-30T01:27:45;101809.72;;;20.91;60.67
17254;BME280;32542;52.832;13.816;2022-10-30T01:31:02;101803.50;;;20.91;60.71
17254;BME280;32542;52.832;13.816;2022-10-30T01:34:16;101799.06;;;20.91;60.79
17254;BME280;32542;52.832;13.816;2022-10-30T01:37:29;101801.78;;;20.90;60.69
17254;BME280;32542;52.832;13.816;2022-10-30T01:40:35;101790.25;;;20.89;60.63
17254;BME280;32542;52.832;13.816;2022-10-30T01:43:39;101790.25;;;20.89;60.74
17254;BME280;32542;52.832;13.816;2022-10-30T01:47:02;101792.91;;;20.89;60.81
17254;BME280;32542;52.832;13.816;2022-10-30T01:50:16;101783.19;;;20.88;60.63
17254;BME280;32542;52.832;13.816;2022-10-30T01:53:35;101770.72;;;20.89;60.74
17254;BME280;32542;52.832;13.816;2022-10-30T01:56:53;101769.81;;;20.90;60.71
17254;BME280;32542;52.832;13.816;2022-10-30T02:00:02;101774.28;;;20.89;60.61
17254;BME280;32542;52.832;13.816;2022-10-30T02:03:13;101759.19;;;20.90;60.79
17254;BME280;32542;52.832;13.816;2022-10-30T02:06:16;101758.28;;;20.89;60.67
17254;BME280;32542;52.832;13.816;2022-10-30T02:09:20;101765.38;;;20.90;60.57
17254;BME280;32542;52.832;13.816;2022-10-30T02:12:25;101757.41;;;20.89;60.66
17254;BME280;32542;52.832;13.816;2022-10-30T02:15:29;101753.91;;;20.88;60.62
17254;BME280;32542;52.832;13.816;2022-10-30T02:18:33;101757.41;;;20.89;60.71
17254;BME280;32542;52.832;13.816;2022-10-30T02:21:38;101750.38;;;20.88;60.67
17254;BME280;32542;52.832;13.816;2022-10-30T02:24:41;101743.25;;;20.88;60.63
17254;BME280;32542;52.832;13.816;2022-10-30T02:27:43;101742.38;;;20.88;60.78
17254;BME280;32542;52.832;13.816;2022-10-30T02:30:46;101740.63;;;20.87;60.68
17254;BME280;32542;52.832;13.816;2022-10-30T02:33:50;101739.72;;;20.88;60.73
17254;BME280;32542;52.832;13.816;2022-10-30T02:36:55;101745.03;;;20.88;60.76
17254;BME280;32542;52.832;13.816;2022-10-30T02:39:57;101749.50;;;20.87;60.71
17254;BME280;32542;52.832;13.816;2022-10-30T02:43:00;101749.44;;;20.89;60.71
17254;BME280;32542;52.832;13.816;2022-10-30T02:46:03;101745.91;;;20.88;60.72
17254;BME280;32542;52.832;13.816;2022-10-30T02:49:07;101741.44;;;20.89;60.63
17254;BME280;32542;52.832;13.816;2022-10-30T02:52:12;101746.75;;;20.89;60.56
17254;BME280;32542;52.832;13.816;2022-10-30T02:55:16;101732.59;;;20.88;60.78
17254;BME280;32542;52.832;13.816;2022-10-30T02:58:20;101742.38;;;20.88;60.78
17254;BME280;32542;52.832;13.816;2022-10-30T03:01:23;101733.50;;;20.87;60.67
17254;BME280;32542;52.832;13.816;2022-10-30T03:04:30;101736.19;;;20.87;60.64
17254;BME280;32542;52.832;13.816;2022-10-30T03:07:34;101731.78;;;20.86;60.79
17254;BME280;32542;52.832;13.816;2022-10-30T03:10:37;101737.97;;;20.87;60.79
17254;BME280;32542;52.832;13.816;2022-10-30T03:13:41;101738.84;;;20.87;60.69
17254;BME280;32542;52.832;13.816;2022-10-30T03:16:45;101745.94;;;20.87;60.75
17254;BME280;32542;52.832;13.816;2022-10-30T03:19:49;101744.16;;;20.87;60.67
17254;BME280;32542;52.832;13.816;2022-10-30T03:22:54;101744.16;;;20.87;60.67
17254;BME280;32542;52.832;13.816;2022-10-30T03:25:58;101745.03;;;20.88;60.75
17254;BME280;32542;52.832;13.816;2022-10-30T03:29:02;101754.81;;;20.87;60.74
17254;BME280;32542;52.832;13.816;2022-10-30T03:32:08;101751.25;;;20.88;60.77
17254;BME280;32542;52.832;13.816;2022-10-30T03:35:18;101745.91;;;20.88;60.72
17254;BME280;32542;52.832;13.816;2022-10-30T03:38:23;101751.25;;;20.88;60.64
17254;BME280;32542;52.832;13.816;2022-10-30T03:41:25;101748.59;;;20.87;60.59
17254;BME280;32542;52.832;13.816;2022-10-30T03:44:28;101751.28;;;20.87;60.57
17254;BME280;32542;52.832;13.816;2022-10-30T03:47:31;101752.16;;;20.87;60.69
17254;BME280;32542;52.832;13.816;2022-10-30T03:50:34;101753.09;;;20.86;60.66
17254;BME280;32542;52.832;13.816;2022-10-30T03:53:39;101754.00;;;20.85;60.67
17254;BME280;32542;52.832;13.816;2022-10-30T03:56:43;101758.41;;;20.86;60.62
17254;BME280;32542;52.832;13.816;2022-10-30T03:59:49;101761.97;;;20.85;60.68
17254;BME280;32542;52.832;13.816;2022-10-30T04:03:11;101763.75;;;20.86;60.66
17254;BME280;32542;52.832;13.816;2022-10-30T04:06:16;101767.25;;;20.87;60.62
17254;BME280;32542;52.832;13.816;2022-10-30T04:09:20;101774.38;;;20.86;60.63
17254;BME280;32542;52.832;13.816;2022-10-30T04:12:23;101772.56;;;20.87;60.67
17254;BME280;32542;52.832;13.816;2022-10-30T04:15:26;101775.22;;;20.87;60.57
17254;BME280;32542;52.832;13.816;2022-10-30T04:18:29;101774.38;;;20.86;60.66
17254;BME280;32542;52.832;13.816;2022-10-30T04:21:32;101775.28;;;20.85;60.62
17254;BME280;32542;52.832;13.816;2022-10-30T04:24:36;101773.50;;;20.86;60.61
17254;BME280;32542;52.832;13.816;2022-10-30T04:27:40;101773.50;;;20.86;60.59
17254;BME280;32542;52.832;13.816;2022-10-30T04:30:43;101775.28;;;20.85;60.70
17254;BME280;32542;52.832;13.816;2022-10-30T04:33:49;101777.94;;;20.85;60.73
17254;BME280;32542;52.832;13.816;2022-10-30T04:36:52;101776.22;;;20.84;60.65
17254;BME280;32542;52.832;13.816;2022-10-30T04:39:58;101769.97;;;20.85;60.63
17254;BME280;32542;52.832;13.816;2022-10-30T04:43:07;101765.59;;;20.84;60.66
17254;BME280;32542;52.832;13.816;2022-10-30T04:46:11;101767.31;;;20.85;60.69
17254;BME280;32542;52.832;13.816;2022-10-30T04:49:14;101771.72;;;20.86;60.56
17254;BME280;32542;52.832;13.816;2022-10-30T04:52:17;101774.38;;;20.86;60.68
17254;BME280;32542;52.832;13.816;2022-10-30T04:55:21;101761.97;;;20.85;60.72
17254;BME280;32542;52.832;13.816;2022-10-30T04:58:24;101758.41;;;20.86;60.67
17254;BME280;32542;52.832;13.816;2022-10-30T05:01:35;101749.59;;;20.84;60.52
17254;BME280;32542;52.832;13.816;2022-10-30T05:04:40;101756.66;;;20.85;60.56
17254;BME280;32542;52.832;13.816;2022-10-30T05:07:42;101738.97;;;20.84;60.68
17254;BME280;32542;52.832;13.816;2022-10-30T05:10:47;101746.94;;;20.84;60.68
17254;BME280;32542;52.832;13.816;2022-10-30T05:13:50;101743.41;;;20.84;60.60
17254;BME280;32542;52.832;13.816;2022-10-30T05:16:53;101752.28;;;20.84;60.77
17254;BME280;32542;52.832;13.816;2022-10-30T05:19:56;101750.50;;;20.83;60.69
17254;BME280;32542;52.832;13.816;2022-10-30T05:22:59;101747.84;;;20.83;60.58
17254;BME280;32542;52.832;13.816;2022-10-30T05:26:04;101749.59;;;20.84;60.65
17254;BME280;32542;52.832;13.816;2022-10-30T05:29:07;101744.28;;;20.84;60.57
17254;BME280;32542;52.832;13.816;2022-10-30T05:32:10;101746.00;;;20.85;60.61
17254;BME280;32542;52.832;13.816;2022-10-30T05:35:21;101743.34;;;20.85;60.60
17254;BME280;32542;52.832;13.816;2022-10-30T05:38:24;101732.69;;;20.85;60.57
17254;BME280;32542;52.832;13.816;2022-10-30T05:41:28;101740.69;;;20.85;60.61
17254;BME280;32542;52.832;13.816;2022-10-30T05:44:31;101738.97;;;20.84;60.54
17254;BME280;32542;52.832;13.816;2022-10-30T05:47:55;101744.28;;;20.84;60.61
17254;BME280;32542;52.832;13.816;2022-10-30T05:50:59;101743.41;;;20.84;60.72
17254;BME280;32542;52.832;13.816;2022-10-30T05:54:04;101738.97;;;20.84;60.71
17254;BME280;32542;52.832;13.816;2022-10-30T05:57:11;101744.28;;;20.84;60.68
17254;BME280;32542;52.832;13.816;2022-10-30T06:00:15;101747.84;;;20.83;60.62
17254;BME280;32542;52.832;13.816;2022-10-30T06:03:18;101737.19;;;20.83;60.72
17254;BME280;32542;52.832;13.816;2022-10-30T06:06:21;101736.28;;;20.84;60.67
17254;BME280;32542;52.832;13.816;2022-10-30T06:09:24;101728.31;;;20.84;60.66
17254;BME280;32542;52.832;13.816;2022-10-30T06:12:52;101752.22;;;20.86;60.58
17254;BME280;32542;52.832;13.816;2022-10-30T06:16:05;101743.34;;;20.85;60.66
17254;BME280;32542;52.832;13.816;2022-10-30T06:19:27;101758.41;;;20.86;60.52
17254;BME280;32542;52.832;13.816;2022-10-30T06:22:41;101750.44;;;20.85;60.62
17254;BME280;32542;52.832;13.816;2022-10-30T06:25:49;101751.34;;;20.85;60.67
17254;BME280;32542;52.832;13.816;2022-10-30T06:28:58;101747.78;;;20.85;60.59
17254;BME280;32542;52.832;13.816;2022-10-30T06:32:01;101744.28;;;20.84;60.62
17254;BME280;32542;52.832;13.816;2022-10-30T06:35:08;101746.00;;;20.85;60.52
17254;BME280;32542;52.832;13.816;2022-10-30T06:38:11;101751.38;;;20.84;60.71
17254;BME280;32542;52.832;13.816;2022-10-30T06:41:15;101746.94;;;20.84;60.67
17254;BME280;32542;52.832;13.816;2022-10-30T06:44:38;101767.38;;;20.84;60.58
17254;BME280;32542;52.832;13.816;2022-10-30T06:47:41;101760.25;;;20.84;60.66
17254;BME280;32542;52.832;13.816;2022-10-30T06:50:44;101761.97;;;20.85;60.67
17254;BME280;32542;52.832;13.816;2022-10-30T06:53:47;101757.53;;;20.86;60.58
17254;BME280;32542;52.832;13.816;2022-10-30T06:57:08;101736.25;;;20.86;60.52
17254;BME280;32542;52.832;13.816;2022-10-30T07:00:33;101732.69;;;20.85;60.69
17254;BME280;32542;52.832;13.816;2022-10-30T07:04:05;101729.16;;;20.85;60.50
17254;BME280;32542;52.832;13.816;2022-10-30T07:07:08;101724.72;;;20.85;60.63
17254;BME280;32542;52.832;13.816;2022-10-30T07:10:11;101722.94;;;20.86;60.54
17254;BME280;32542;52.832;13.816;2022-10-30T07:13:33;101729.16;;;20.85;60.65
17254;BME280;32542;52.832;13.816;2022-10-30T07:16:53;101728.31;;;20.84;60.60
17254;BME280;32542;52.832;13.816;2022-10-30T07:19:56;101717.66;;;20.84;60.54
17254;BME280;32542;52.832;13.816;2022-10-30T07:22:59;101713.19;;;20.85;60.52
17254;BME280;32542;52.832;13.816;2022-10-30T07:26:02;101711.47;;;20.84;60.54
17254;BME280;32542;52.832;13.816;2022-10-30T07:29:09;101723.00;;;20.84;60.57
17254;BME280;32542;52.832;13.816;2022-10-30T07:32:18;101723.00;;;20.84;60.61
17254;BME280;32542;52.832;13.816;2022-10-30T07:35:33;101722.03;;;20.85;60.57
17254;BME280;32542;52.832;13.816;2022-10-30T07:39:04;101733.56;;;20.86;60.63
17254;BME280;32542;52.832;13.816;2022-10-30T07:42:11;101742.44;;;20.86;60.64
17254;BME280;32542;52.832;13.816;2022-10-30T07:45:36;101739.78;;;20.86;60.60
17254;BME280;32542;52.832;13.816;2022-10-30T07:49:10;101747.75;;;20.86;60.60
17254;BME280;32542;52.832;13.816;2022-10-30T07:52:17;101751.34;;;20.85;60.61
17254;BME280;32542;52.832;13.816;2022-10-30T07:55:22;101751.34;;;20.85;60.65
17254;BME280;32542;52.832;13.816;2022-10-30T07:58:25;101759.31;;;20.85;60.64
17254;BME280;32542;52.832;13.816;2022-10-30T08:01:46;101754.94;;;20.84;60.59
17254;BME280;32542;52.832;13.816;2022-10-30T08:05:14;101754.94;;;20.84;60.56
17254;BME280;32542;52.832;13.816;2022-10-30T08:08:34;101755.78;;;20.85;60.64
17254;BME280;32542;52.832;13.816;2022-10-30T08:11:57;101757.59;;;20.84;60.66
17254;BME280;32542;52.832;13.816;2022-10-30T08:15:00;101754.00;;;20.85;60.51
17254;BME280;32542;52.832;13.816;2022-10-30T08:18:04;101752.22;;;20.86;60.56
17254;BME280;32542;52.832;13.816;2022-10-30T08:21:12;101749.50;;;20.87;60.58
17254;BME280;32542;52.832;13.816;2022-10-30T08:24:27;101749.50;;;20.87;60.64
17254;BME280;32542;52.832;13.816;2022-10-30T08:27:32;101747.75;;;20.86;60.63
17254;BME280;32542;52.832;13.816;2022-10-30T08:30:37;101760.13;;;20.87;60.56
17254;BME280;32542;52.832;13.816;2022-10-30T08:33:42;101753.94;;;20.87;60.56
17254;BME280;32542;52.832;13.816;2022-10-30T08:37:02;101746.88;;;20.86;60.64
17254;BME280;32542;52.832;13.816;2022-10-30T08:40:06;101746.88;;;20.86;60.61
17254;BME280;32542;52.832;13.816;2022-10-30T08:43:29;101754.00;;;20.85;60.54
17254;BME280;32542;52.832;13.816;2022-10-30T08:46:34;101755.78;;;20.85;60.53
17254;BME280;32542;52.832;13.816;2022-10-30T08:49:37;101761.97;;;20.85;60.62
17254;BME280;32542;52.832;13.816;2022-10-30T08:52:42;101758.44;;;20.85;60.59
17254;BME280;32542;52.832;13.816;2022-10-30T08:55:46;101775.22;;;20.87;60.59
17254;BME280;32542;52.832;13.816;2022-10-30T08:59:00;101765.47;;;20.87;60.67
17254;BME280;32542;52.832;13.816;2022-10-30T09:02:02;101763.69;;;20.88;60.61
17254;BME280;32542;52.832;13.816;2022-10-30T09:05:24;101766.34;;;20.88;60.57
17254;BME280;32542;52.832;13.816;2022-10-30T09:08:48;101754.81;;;20.87;60.63
17254;BME280;32542;52.832;13.816;2022-10-30T09:12:17;101760.13;;;20.87;60.49
17254;BME280;32542;52.832;13.816;2022-10-30T09:15:21;101753.09;;;20.86;60.59
17254;BME280;32542;52.832;13.816;2022-10-30T09:18:28;101759.25;;;20.87;60.56
17254;BME280;32542;52.832;13.816;2022-10-30T09:21:32;101763.75;;;20.86;60.61
17254;BME280;32542;52.832;13.816;2022-10-30T09:24:36;101763.75;;;20.86;60.55
17254;BME280;32542;52.832;13.816;2022-10-30T09:28:09;101761.06;;;20.86;60.53
17254;BME280;32542;52.832;13.816;2022-10-30T09:31:32;101762.84;;;20.86;60.65
17254;BME280;32542;52.832;13.816;2022-10-30T09:34:37;101763.75;;;20.86;60.61
17254;BME280;32542;52.832;13.816;2022-10-30T09:37:48;101776.13;;;20.87;60.69
17254;BME280;32542;52.832;13.816;2022-10-30T09:41:06;101770.78;;;20.87;60.54
17254;BME280;32542;52.832;13.816;2022-10-30T09:44:20;101767.22;;;20.88;60.59
17254;BME280;32542;52.832;13.816;2022-10-30T09:47:32;101768.06;;;20.89;60.63
17254;BME280;32542;52.832;13.816;2022-10-30T09:50:45;101763.63;;;20.89;60.62
17254;BME280;32542;52.832;13.816;2022-10-30T09:54:02;101753.91;;;20.88;60.64
17254;BME280;32542;52.832;13.816;2022-10-30T09:57:19;101745.91;;;20.88;60.67
17254;BME280;32542;52.832;13.816;2022-10-30T10:00:32;101748.59;;;20.88;60.61
17254;BME280;32542;52.832;13.816;2022-10-30T10:03:52;101748.59;;;20.88;60.63
17254;BME280;32542;52.832;13.816;2022-10-30T10:07:17;101748.59;;;20.88;60.70
17254;BME280;32542;52.832;13.816;2022-10-30T10:10:34;101737.00;;;20.89;60.63
17254;BME280;32542;52.832;13.816;2022-10-30T10:13:50;101727.28;;;20.88;60.61
17254;BME280;32542;52.832;13.816;2022-10-30T10:16:56;101727.28;;;20.88;60.72
17254;BME280;32542;52.832;13.816;2022-10-30T10:20:02;101729.00;;;20.89;60.67
17254;BME280;32542;52.832;13.816;2022-10-30T10:23:13;101722.78;;;20.90;60.78
17254;BME280;32542;52.832;13.816;2022-10-30T10:26:29;101718.28;;;20.91;60.62
17254;BME280;32542;52.832;13.816;2022-10-30T10:29:41;101719.19;;;20.91;60.62
17254;BME280;32542;52.832;13.816;2022-10-30T10:33:01;101729.81;;;20.91;60.59
17254;BME280;32542;52.832;13.816;2022-10-30T10:36:15;101712.13;;;20.90;60.56
17254;BME280;32542;52.832;13.816;2022-10-30T10:39:38;101705.94;;;20.90;60.75
17254;BME280;32542;52.832;13.816;2022-10-30T10:42:52;101703.25;;;20.90;60.66
17254;BME280;32542;52.832;13.816;2022-10-30T10:46:18;101694.41;;;20.89;60.65
17254;BME280;32542;52.832;13.816;2022-10-30T10:49:40;101691.72;;;20.89;60.57
17254;BME280;32542;52.832;13.816;2022-10-30T10:52:47;101689.06;;;20.89;60.77
17254;BME280;32542;52.832;13.816;2022-10-30T10:55:53;101690.84;;;20.89;60.59
17254;BME280;32542;52.832;13.816;2022-10-30T10:59:00;101684.69;;;20.88;60.75
17254;BME280;32542;52.832;13.816;2022-10-30T11:02:23;101689.94;;;20.90;60.66
17254;BME280;32542;52.832;13.816;2022-10-30T11:05:33;101692.56;;;20.91;60.69
17254;BME280;32542;52.832;13.816;2022-10-30T11:08:37;101688.09;;;20.92;60.74
17254;BME280;32542;52.832;13.816;2022-10-30T11:11:40;101686.34;;;20.91;60.59
17254;BME280;32542;52.832;13.816;2022-10-30T11:14:44;101688.09;;;20.92;60.59
17254;BME280;32542;52.832;13.816;2022-10-30T11:17:52;101685.44;;;20.92;60.71
17254;BME280;32542;52.832;13.816;2022-10-30T11:21:00;101692.56;;;20.91;60.67
17254;BME280;32542;52.832;13.816;2022-10-30T11:24:25;101697.88;;;20.91;60.72
17254;BME280;32542;52.832;13.816;2022-10-30T11:27:28;101692.56;;;20.91;60.60
17254;BME280;32542;52.832;13.816;2022-10-30T11:30:31;101687.22;;;20.91;60.73
17254;BME280;32542;52.832;13.816;2022-10-30T11:33:35;101681.97;;;20.90;60.65
17254;BME280;32542;52.832;13.816;2022-10-30T11:36:38;101676.56;;;20.91;60.61
17254;BME280;32542;52.832;13.816;2022-10-30T11:39:41;101683.69;;;20.91;60.69
17254;BME280;32542;52.832;13.816;2022-10-30T11:42:55;101676.56;;;20.91;60.70
17254;BME280;32542;52.832;13.816;2022-10-30T11:46:00;101674.78;;;20.92;60.70
17254;BME280;32542;52.832;13.816;2022-10-30T11:49:05;101674.78;;;20.92;60.64
17254;BME280;32542;52.832;13.816;2022-10-30T11:52:08;101675.59;;;20.94;60.62
17254;BME280;32542;52.832;13.816;2022-10-30T11:55:15;101682.72;;;20.93;60.67
17254;BME280;32542;52.832;13.816;2022-10-30T11:58:22;101677.38;;;20.93;60.64
17254;BME280;32542;52.832;13.816;2022-10-30T12:01:29;101669.47;;;20.92;60.71
17254;BME280;32542;52.832;13.816;2022-10-30T12:04:34;101663.25;;;20.91;60.66
17254;BME280;32542;52.832;13.816;2022-10-30T12:07:37;101665.91;;;20.93;60.72
17254;BME280;32542;52.832;13.816;2022-10-30T12:10:43;101670.34;;;20.92;60.61
17254;BME280;32542;52.832;13.816;2022-10-30T12:13:47;101672.13;;;20.92;60.59
17254;BME280;32542;52.832;13.816;2022-10-30T12:16:51;101663.25;;;20.91;60.75
17254;BME280;32542;52.832;13.816;2022-10-30T12:20:04;101670.34;;;20.92;60.67
17254;BME280;32542;52.832;13.816;2022-10-30T12:23:08;101673.91;;;20.91;60.73
17254;BME280;32542;52.832;13.816;2022-10-30T12:26:14;101680.06;;;20.93;60.74
17254;BME280;32542;52.832;13.816;2022-10-30T12:29:18;101680.06;;;20.93;60.61
17254;BME280;32542;52.832;13.816;2022-10-30T12:32:33;101674.72;;;20.93;60.64
17254;BME280;32542;52.832;13.816;2022-10-30T12:35:45;101671.22;;;20.93;60.72
17254;BME280;32542;52.832;13.816;2022-10-30T12:38:53;101682.69;;;20.95;60.66
17254;BME280;32542;52.832;13.816;2022-10-30T12:42:00;101679.16;;;20.94;60.71
17254;BME280;32542;52.832;13.816;2022-10-30T12:45:10;101685.38;;;20.93;60.70
17254;BME280;32542;52.832;13.816;2022-10-30T12:48:21;101680.06;;;20.93;60.63
17254;BME280;32542;52.832;13.816;2022-10-30T12:51:32;101682.78;;;20.92;60.62
17254;BME280;32542;52.832;13.816;2022-10-30T12:54:42;101680.06;;;20.93;60.70
17254;BME280;32542;52.832;13.816;2022-10-30T12:57:55;101680.94;;;20.94;60.72
17254;BME280;32542;52.832;13.816;2022-10-30T13:01:01;101674.78;;;20.92;60.74
17254;BME280;32542;52.832;13.816;2022-10-30T13:04:08;101674.72;;;20.93;60.63
17254;BME280;32542;52.832;13.816;2022-10-30T13:07:19;101680.94;;;20.94;60.76
17254;BME280;32542;52.832;13.816;2022-10-30T13:10:29;101680.06;;;20.93;60.74
17254;BME280;32542;52.832;13.816;2022-10-30T13:13:35;101671.16;;;20.94;60.72
17254;BME280;32542;52.832;13.816;2022-10-30T13:16:38;101678.22;;;20.95;60.79
17254;BME280;32542;52.832;13.816;2022-10-30T13:19:43;101684.41;;;20.96;60.67
17254;BME280;32542;52.832;13.816;2022-10-30T13:22:50;101680.88;;;20.95;60.72
17254;BME280;32542;52.832;13.816;2022-10-30T13:26:04;101677.38;;;20.95;60.60
17254;BME280;32542;52.832;13.816;2022-10-30T13:29:14;101673.81;;;20.94;60.69
17254;BME280;32542;52.832;13.816;2022-10-30T13:32:27;101676.47;;;20.94;60.54
17254;BME280;32542;52.832;13.816;2022-10-30T13:35:35;101680.03;;;20.95;60.73
17254;BME280;32542;52.832;13.816;2022-10-30T13:38:54;101681.81;;;20.94;60.71
17254;BME280;32542;52.832;13.816;2022-10-30T13:42:15;101684.47;;;20.94;60.72
17254;BME280;32542;52.832;13.816;2022-10-30T13:45:35;101682.69;;;20.95;60.72
17254;BME280;32542;52.832;13.816;2022-10-30T13:48:56;101674.72;;;20.93;60.68
17254;BME280;32542;52.832;13.816;2022-10-30T13:52:03;101685.34;;;20.95;60.71
17254;BME280;32542;52.832;13.816;2022-10-30T13:55:16;101687.94;;;20.96;60.70
17254;BME280;32542;52.832;13.816;2022-10-30T13:58:25;101687.94;;;20.96;60.66
17254;BME280;32542;52.832;13.816;2022-10-30T14:01:37;101687.00;;;20.97;60.77
17254;BME280;32542;52.832;13.816;2022-10-30T14:04:48;101684.41;;;20.96;60.76
17254;BME280;32542;52.832;13.816;2022-10-30T14:08:01;101694.19;;;20.95;60.70
17254;BME280;32542;52.832;13.816;2022-10-30T14:11:12;101688.84;;;20.95;60.62
17254;BME280;32542;52.832;13.816;2022-10-30T14:14:33;101694.19;;;20.95;60.66
17254;BME280;32542;52.832;13.816;2022-10-30T14:18:21;101695.06;;;20.96;60.69
17254;BME280;32542;52.832;13.816;2022-10-30T14:21:30;101690.69;;;20.95;60.70
17254;BME280;32542;52.832;13.816;2022-10-30T14:24:33;101692.47;;;20.94;60.82
17254;BME280;32542;52.832;13.816;2022-10-30T14:27:38;101699.50;;;20.95;60.64
17254;BME280;32542;52.832;13.816;2022-10-30T14:30:43;101701.25;;;20.96;60.71
17254;BME280;32542;52.832;13.816;2022-10-30T14:33:48;101694.19;;;20.95;60.71
17254;BME280;32542;52.832;13.816;2022-10-30T14:36:51;101695.94;;;20.96;60.76
17254;BME280;32542;52.832;13.816;2022-10-30T14:39:55;101692.34;;;20.97;60.67
17254;BME280;32542;52.832;13.816;2022-10-30T14:43:02;101695.00;;;20.97;60.70
17254;BME280;32542;52.832;13.816;2022-10-30T14:46:18;101691.50;;;20.97;60.77
17254;BME280;32542;52.832;13.816;2022-10-30T14:49:41;101692.34;;;20.97;60.61
17254;BME280;32542;52.832;13.816;2022-10-30T14:52:58;101695.06;;;20.96;60.75
17254;BME280;32542;52.832;13.816;2022-10-30T14:56:06;101693.28;;;20.96;60.60
17254;BME280;32542;52.832;13.816;2022-10-30T14:59:30;101699.50;;;20.95;60.67
17254;BME280;32542;52.832;13.816;2022-10-30T15:02:37;101699.50;;;20.95;60.66
17254;BME280;32542;52.832;13.816;2022-10-30T15:05:50;101699.50;;;20.95;60.62
17254;BME280;32542;52.832;13.816;2022-10-30T15:09:07;101702.16;;;20.95;60.64
17254;BME280;32542;52.832;13.816;2022-10-30T15:12:21;101699.50;;;20.95;60.63
17254;BME280;32542;52.832;13.816;2022-10-30T15:15:35;101703.06;;;20.96;60.64
17254;BME280;32542;52.832;13.816;2022-10-30T15:18:39;101701.25;;;20.96;60.73
17254;BME280;32542;52.832;13.816;2022-10-30T15:21:44;101697.66;;;20.97;60.62
17254;BME280;32542;52.832;13.816;2022-10-30T15:24:49;101709.19;;;20.98;60.67
17254;BME280;32542;52.832;13.816;2022-10-30T15:27:53;101697.66;;;20.97;60.80
17254;BME280;32542;52.832;13.816;2022-10-30T15:31:01;101703.00;;;20.97;60.63
17254;BME280;32542;52.832;13.816;2022-10-30T15:34:19;101706.59;;;20.96;60.71
17254;BME280;32542;52.832;13.816;2022-10-30T15:37:23;101703.94;;;20.96;60.60
17254;BME280;32542;52.832;13.816;2022-10-30T15:40:26;101705.66;;;20.97;60.63
17254;BME280;32542;52.832;13.816;2022-10-30T15:43:32;101711.03;;;20.96;60.67
17254;BME280;32542;52.832;13.816;2022-10-30T15:46:38;101702.16;;;20.95;60.55
17254;BME280;32542;52.832;13.816;2022-10-30T15:49:46;101708.38;;;20.96;60.69
17254;BME280;32542;52.832;13.816;2022-10-30T15:52:50;101704.84;;;20.95;60.75
17254;BME280;32542;52.832;13.816;2022-10-30T15:55:57;101705.72;;;20.96;60.64
17254;BME280;32542;52.832;13.816;2022-10-30T15:59:02;101708.31;;;20.97;60.68
17254;BME280;32542;52.832;13.816;2022-10-30T16:02:19;101706.53;;;20.98;60.70
17254;BME280;32542;52.832;13.816;2022-10-30T16:05:23;101703.00;;;20.97;60.63
17254;BME280;32542;52.832;13.816;2022-10-30T16:08:26;101707.47;;;20.97;60.66
17254;BME280;32542;52.832;13.816;2022-10-30T16:11:29;101706.59;;;20.96;60.53
17254;BME280;32542;52.832;13.816;2022-10-30T16:14:32;101705.66;;;20.97;60.67